createdAt,value
2018-01-25T00:00:18.321Z,0.60
2018-01-25T00:01:18.311Z,0.50
2018-01-25T00:02:18.311Z,0.60
2018-01-25T00:03:18.320Z,0.80
2018-01-25T00:04:18.296Z,0.70
2018-01-25T00:05:18.305Z,0.70
2018-01-25T00:06:18.287Z,0.70
2018-01-25T00:07:18.284Z,0.70
2018-01-25T00:08:18.284Z,0.70
2018-01-25T00:09:18.321Z,0.60
2018-01-25T00:10:18.282Z,0.70
2018-01-25T00:11:18.291Z,0.60
2018-01-25T00:12:18.273Z,0.50
2018-01-25T00:13:18.256Z,0.70
2018-01-25T00:14:18.261Z,0.70
2018-01-25T00:15:18.259Z,0.60
2018-01-25T00:16:18.254Z,0.70
2018-01-25T00:17:18.246Z,0.60
2018-01-25T00:18:18.240Z,0.50
2018-01-25T00:19:18.236Z,0.70
2018-01-25T00:20:18.239Z,0.70
2018-01-25T00:21:18.240Z,0.60
2018-01-25T00:22:18.229Z,0.60
2018-01-25T00:23:18.224Z,0.80
2018-01-25T00:24:18.219Z,0.60
2018-01-25T00:25:18.221Z,0.50
2018-01-25T00:26:18.209Z,0.70
2018-01-25T00:27:18.207Z,0.50
2018-01-25T00:28:18.200Z,0.40
2018-01-25T00:29:18.195Z,0.70
2018-01-25T00:30:18.201Z,0.60
2018-01-25T00:31:18.215Z,0.80
2018-01-25T00:32:18.190Z,0.70
2018-01-25T00:33:18.183Z,0.60
2018-01-25T00:34:18.181Z,0.50
2018-01-25T00:35:18.181Z,0.50
2018-01-25T00:36:18.170Z,0.70
2018-01-25T00:37:18.172Z,0.70
2018-01-25T00:38:18.169Z,0.60
2018-01-25T00:39:18.161Z,0.80
2018-01-25T00:40:18.157Z,0.50
2018-01-25T00:41:18.150Z,0.60
2018-01-25T00:42:18.163Z,0.70
2018-01-25T00:43:18.135Z,0.60
2018-01-25T00:44:18.150Z,0.80
2018-01-25T00:45:18.157Z,0.60
2018-01-25T00:46:18.139Z,0.60
2018-01-25T00:47:18.132Z,0.70
2018-01-25T00:48:18.121Z,0.60
2018-01-25T00:49:18.130Z,0.50
2018-01-25T00:50:18.130Z,0.80
2018-01-25T00:51:18.118Z,0.80
2018-01-25T00:52:18.107Z,0.60
2018-01-25T00:53:18.106Z,0.50
2018-01-25T00:54:18.093Z,0.70
2018-01-25T00:55:18.098Z,0.60
2018-01-25T00:56:18.085Z,0.50
2018-01-25T00:57:18.111Z,0.60
2018-01-25T00:58:18.303Z,0.70
2018-01-25T00:59:18.082Z,0.60
2018-01-25T01:00:18.075Z,0.70
2018-01-25T01:01:18.066Z,0.50
2018-01-25T01:02:18.081Z,0.60
2018-01-25T01:03:18.058Z,0.70
2018-01-25T01:04:18.060Z,0.70
2018-01-25T01:05:18.051Z,0.70
2018-01-25T01:06:18.050Z,0.70
2018-01-25T01:07:18.042Z,0.70
2018-01-25T01:08:18.046Z,0.60
2018-01-25T01:09:18.041Z,0.60
2018-01-25T01:10:18.031Z,0.60
2018-01-25T01:11:18.031Z,0.60
2018-01-25T01:12:18.026Z,0.50
2018-01-25T01:13:18.026Z,0.70
2018-01-25T01:14:18.018Z,0.50
2018-01-25T01:15:18.009Z,0.80
2018-01-25T01:16:18.006Z,0.70
2018-01-25T01:17:18.011Z,0.80
2018-01-25T01:18:17.998Z,0.70
2018-01-25T01:19:17.998Z,0.70
2018-01-25T01:20:17.989Z,0.60
2018-01-25T01:21:17.985Z,0.70
2018-01-25T01:22:17.978Z,0.70
2018-01-25T01:23:17.968Z,0.70
2018-01-25T01:24:17.972Z,0.50
2018-01-25T01:25:17.980Z,0.60
2018-01-25T01:26:17.963Z,0.50
2018-01-25T01:27:17.952Z,0.60
2018-01-25T01:28:17.961Z,0.70
2018-01-25T01:29:17.962Z,0.50
2018-01-25T01:30:17.954Z,0.60
2018-01-25T01:31:17.950Z,0.50
2018-01-25T01:32:17.945Z,0.60
2018-01-25T01:33:17.948Z,0.60
2018-01-25T01:34:17.946Z,0.60
2018-01-25T01:35:17.928Z,0.60
2018-01-25T01:36:17.931Z,0.70
2018-01-25T01:37:17.924Z,0.60
2018-01-25T01:38:17.917Z,0.50
2018-01-25T01:39:17.918Z,0.50
2018-01-25T01:40:17.910Z,0.70
2018-01-25T01:41:17.910Z,0.40
2018-01-25T01:42:17.906Z,0.50
2018-01-25T01:43:17.903Z,0.60
2018-01-25T01:44:17.892Z,0.50
2018-01-25T01:45:17.896Z,0.50
2018-01-25T01:46:17.889Z,0.60
2018-01-25T01:47:17.878Z,0.60
2018-01-25T01:48:17.876Z,0.60
2018-01-25T01:49:17.871Z,0.60
2018-01-25T01:50:17.881Z,0.50
2018-01-25T01:51:17.871Z,0.60
2018-01-25T01:52:17.873Z,0.60
2018-01-25T01:53:17.862Z,0.50
2018-01-25T01:54:17.853Z,0.50
2018-01-25T01:55:17.841Z,0.40
2018-01-25T01:56:17.851Z,0.50
2018-01-25T01:57:17.841Z,0.50
2018-01-25T01:58:17.841Z,0.50
2018-01-25T01:59:20.636Z,0.60
2018-01-25T02:00:17.841Z,0.50
2018-01-25T02:01:17.841Z,0.40
2018-01-25T02:02:17.827Z,0.50
2018-01-25T02:03:17.827Z,0.40
2018-01-25T02:04:17.812Z,0.60
2018-01-25T02:05:17.809Z,0.50
2018-01-25T02:06:17.805Z,0.60
2018-01-25T02:07:17.813Z,0.50
2018-01-25T02:08:17.802Z,0.70
2018-01-25T02:09:17.791Z,0.50
2018-01-25T02:10:17.788Z,0.70
2018-01-25T02:11:17.787Z,0.60
2018-01-25T02:12:17.784Z,0.60
2018-01-25T02:13:17.781Z,0.50
2018-01-25T02:14:17.773Z,0.70
2018-01-25T02:15:17.776Z,0.50
2018-01-25T02:16:17.762Z,0.60
2018-01-25T02:17:17.763Z,0.50
2018-01-25T02:18:17.756Z,0.60
2018-01-25T02:19:17.759Z,0.60
2018-01-25T02:20:17.756Z,0.60
2018-01-25T02:21:17.742Z,0.60
2018-01-25T02:22:17.749Z,0.70
2018-01-25T02:23:17.737Z,0.60
2018-01-25T02:24:17.733Z,0.60
2018-01-25T02:25:17.727Z,0.70
2018-01-25T02:26:17.727Z,0.70
2018-01-25T02:27:17.722Z,0.60
2018-01-25T02:28:17.718Z,0.70
2018-01-25T02:29:17.713Z,0.50
2018-01-25T02:30:17.709Z,0.70
2018-01-25T02:31:17.703Z,0.60
2018-01-25T02:32:17.709Z,0.60
2018-01-25T02:33:17.698Z,0.60
2018-01-25T02:34:17.694Z,0.50
2018-01-25T02:35:17.689Z,0.50
2018-01-25T02:36:17.687Z,0.60
2018-01-25T02:37:17.682Z,0.60
2018-01-25T02:38:17.679Z,0.60
2018-01-25T02:39:17.671Z,0.40
2018-01-25T02:40:17.667Z,0.60
2018-01-25T02:41:17.662Z,0.50
2018-01-25T02:42:17.658Z,0.80
2018-01-25T02:43:17.653Z,0.60
2018-01-25T02:44:17.656Z,0.70
2018-01-25T02:45:17.650Z,0.60
2018-01-25T02:46:17.642Z,0.60
2018-01-25T02:47:17.648Z,0.40
2018-01-25T02:48:17.636Z,0.50
2018-01-25T02:49:17.642Z,0.50
2018-01-25T02:50:17.636Z,0.70
2018-01-25T02:51:17.619Z,0.60
2018-01-25T02:52:17.619Z,0.40
2018-01-25T02:53:17.608Z,0.40
2018-01-25T02:54:17.614Z,0.60
2018-01-25T02:55:17.599Z,0.50
2018-01-25T02:56:17.601Z,0.50
2018-01-25T02:57:17.604Z,0.50
2018-01-25T02:58:17.597Z,0.50
2018-01-25T02:59:21.682Z,0.40
2018-01-25T03:00:17.602Z,0.50
2018-01-25T03:01:17.588Z,0.60
2018-01-25T03:02:17.582Z,0.50
2018-01-25T03:03:17.582Z,0.50
2018-01-25T03:04:17.587Z,0.40
2018-01-25T03:05:17.573Z,0.60
2018-01-25T03:06:17.564Z,0.70
2018-01-25T03:07:17.569Z,0.60
2018-01-25T03:08:17.545Z,0.60
2018-01-25T03:09:17.555Z,0.60
2018-01-25T03:10:17.563Z,0.60
2018-01-25T03:11:17.549Z,0.60
2018-01-25T03:12:17.544Z,0.50
2018-01-25T03:13:17.528Z,0.80
2018-01-25T03:14:17.533Z,0.50
2018-01-25T03:15:17.539Z,0.50
2018-01-25T03:16:17.523Z,0.50
2018-01-25T03:17:17.537Z,0.60
2018-01-25T03:18:17.517Z,0.50
2018-01-25T03:19:17.528Z,0.50
2018-01-25T03:20:17.513Z,0.40
2018-01-25T03:21:17.502Z,0.50
2018-01-25T03:22:17.509Z,0.50
2018-01-25T03:23:17.499Z,0.50
2018-01-25T03:24:17.486Z,0.50
2018-01-25T03:25:17.492Z,0.50
2018-01-25T03:26:17.485Z,0.40
2018-01-25T03:27:17.480Z,0.50
2018-01-25T03:28:17.480Z,0.60
2018-01-25T03:29:17.479Z,0.40
2018-01-25T03:30:17.473Z,0.40
2018-01-25T03:31:17.469Z,0.50
2018-01-25T03:32:17.460Z,0.60
2018-01-25T03:33:17.454Z,0.50
2018-01-25T03:34:17.455Z,0.40
2018-01-25T03:35:17.441Z,0.50
2018-01-25T03:36:17.445Z,0.50
2018-01-25T03:37:17.453Z,0.50
2018-01-25T03:38:17.433Z,0.40
2018-01-25T03:39:17.444Z,0.50
2018-01-25T03:40:17.429Z,0.40
2018-01-25T03:41:17.424Z,0.50
2018-01-25T03:42:17.430Z,0.50
2018-01-25T03:43:17.416Z,0.60
2018-01-25T03:44:17.419Z,0.50
2018-01-25T03:45:17.411Z,0.50
2018-01-25T03:46:17.404Z,0.40
2018-01-25T03:47:17.410Z,0.50
2018-01-25T03:48:17.403Z,0.50
2018-01-25T03:49:17.385Z,0.40
2018-01-25T03:50:17.380Z,0.40
2018-01-25T03:51:17.384Z,0.40
2018-01-25T03:52:17.380Z,0.40
2018-01-25T03:53:17.383Z,0.50
2018-01-25T03:54:17.389Z,0.50
2018-01-25T03:55:17.368Z,0.50
2018-01-25T03:56:17.365Z,0.30
2018-01-25T03:57:17.361Z,0.50
2018-01-25T03:58:17.363Z,0.40
2018-01-25T03:59:17.350Z,0.40
2018-01-25T04:00:17.350Z,0.50
2018-01-25T04:01:17.344Z,0.50
2018-01-25T04:02:17.356Z,0.40
2018-01-25T04:03:17.339Z,0.40
2018-01-25T04:04:17.330Z,0.40
2018-01-25T04:05:17.325Z,0.30
2018-01-25T04:06:17.319Z,0.40
2018-01-25T04:07:17.330Z,0.40
2018-01-25T04:08:17.320Z,0.30
2018-01-25T04:09:17.310Z,0.40
2018-01-25T04:10:17.310Z,0.40
2018-01-25T04:11:17.300Z,0.50
2018-01-25T04:12:17.291Z,0.50
2018-01-25T04:13:17.291Z,0.40
2018-01-25T04:14:17.295Z,0.40
2018-01-25T04:15:17.280Z,0.50
2018-01-25T04:16:17.278Z,0.40
2018-01-25T04:17:17.270Z,0.30
2018-01-25T04:18:17.285Z,0.40
2018-01-25T04:19:17.271Z,0.40
2018-01-25T04:20:17.275Z,0.50
2018-01-25T04:21:17.262Z,0.40
2018-01-25T04:22:17.261Z,0.40
2018-01-25T04:23:17.246Z,0.60
2018-01-25T04:24:17.254Z,0.40
2018-01-25T04:25:17.245Z,0.50
2018-01-25T04:26:17.256Z,0.60
2018-01-25T04:27:17.246Z,0.50
2018-01-25T04:28:17.238Z,0.50
2018-01-25T04:29:17.244Z,0.60
2018-01-25T04:30:17.224Z,0.50
2018-01-25T04:31:17.210Z,0.50
2018-01-25T04:32:17.215Z,0.40
2018-01-25T04:33:17.214Z,0.40
2018-01-25T04:34:17.212Z,0.50
2018-01-25T04:35:17.208Z,0.40
2018-01-25T04:36:17.202Z,0.40
2018-01-25T04:37:17.197Z,0.50
2018-01-25T04:38:17.186Z,0.40
2018-01-25T04:39:17.190Z,0.50
2018-01-25T04:40:17.189Z,0.50
2018-01-25T04:41:17.185Z,0.40
2018-01-25T04:42:17.175Z,0.40
2018-01-25T04:43:17.182Z,0.50
2018-01-25T04:44:17.166Z,0.50
2018-01-25T04:45:17.157Z,0.50
2018-01-25T04:46:17.152Z,0.40
2018-01-25T04:47:17.150Z,0.50
2018-01-25T04:48:17.146Z,0.40
2018-01-25T04:49:17.144Z,0.60
2018-01-25T04:50:17.141Z,0.60
2018-01-25T04:51:17.140Z,0.40
2018-01-25T04:52:17.140Z,0.30
2018-01-25T04:53:17.126Z,0.50
2018-01-25T04:54:17.131Z,0.40
2018-01-25T04:55:17.131Z,0.50
2018-01-25T04:56:17.120Z,0.50
2018-01-25T04:57:17.112Z,0.40
2018-01-25T04:58:17.107Z,0.60
2018-01-25T04:59:17.111Z,0.40
2018-01-25T05:00:17.100Z,0.50
2018-01-25T05:01:17.097Z,0.50
2018-01-25T05:02:17.086Z,0.50
2018-01-25T05:03:17.091Z,0.40
2018-01-25T05:04:17.090Z,0.50
2018-01-25T05:05:17.080Z,0.40
2018-01-25T05:06:17.080Z,0.40
2018-01-25T05:07:17.070Z,0.50
2018-01-25T05:08:17.066Z,0.50
2018-01-25T05:09:17.066Z,0.40
2018-01-25T05:10:17.066Z,0.50
2018-01-25T05:11:17.054Z,0.60
2018-01-25T05:12:17.051Z,0.40
2018-01-25T05:13:17.063Z,0.60
2018-01-25T05:14:17.060Z,0.40
2018-01-25T05:15:17.042Z,0.60
2018-01-25T05:16:17.035Z,0.50
2018-01-25T05:17:17.050Z,0.40
2018-01-25T05:18:17.025Z,0.50
2018-01-25T05:19:17.031Z,0.50
2018-01-25T05:20:17.011Z,0.40
2018-01-25T05:21:17.022Z,0.50
2018-01-25T05:22:17.009Z,0.30
2018-01-25T05:23:17.016Z,0.40
2018-01-25T05:24:17.007Z,0.50
2018-01-25T05:25:17.003Z,0.40
2018-01-25T05:26:17.001Z,0.50
2018-01-25T05:27:17.009Z,0.50
2018-01-25T05:28:16.977Z,0.40
2018-01-25T05:29:16.982Z,0.50
2018-01-25T05:30:16.986Z,0.40
2018-01-25T05:31:17.015Z,0.40
2018-01-25T05:32:16.980Z,0.40
2018-01-25T05:33:16.962Z,0.40
2018-01-25T05:34:16.970Z,0.30
2018-01-25T05:35:16.967Z,0.30
2018-01-25T05:36:16.961Z,0.30
2018-01-25T05:37:16.941Z,0.40
2018-01-25T05:38:16.945Z,0.50
2018-01-25T05:39:16.940Z,0.40
2018-01-25T05:40:16.942Z,0.40
2018-01-25T05:41:16.933Z,0.40
2018-01-25T05:42:16.938Z,0.40
2018-01-25T05:43:16.957Z,0.50
2018-01-25T05:44:16.928Z,0.40
2018-01-25T05:45:16.918Z,0.60
2018-01-25T05:46:16.918Z,0.50
2018-01-25T05:47:16.914Z,0.60
2018-01-25T05:48:16.898Z,0.60
2018-01-25T05:49:16.901Z,0.40
2018-01-25T05:50:16.892Z,0.40
2018-01-25T05:51:16.897Z,0.50
2018-01-25T05:52:16.881Z,0.40
2018-01-25T05:53:16.883Z,0.50
2018-01-25T05:54:16.887Z,0.40
2018-01-25T05:55:16.882Z,0.60
2018-01-25T05:56:16.872Z,0.60
2018-01-25T05:57:16.872Z,0.40
2018-01-25T05:58:16.863Z,0.60
2018-01-25T05:59:16.868Z,0.30
2018-01-25T06:00:16.857Z,0.50
2018-01-25T06:01:16.863Z,0.40
2018-01-25T06:02:16.852Z,0.40
2018-01-25T06:03:16.848Z,0.40
2018-01-25T06:04:16.853Z,0.50
2018-01-25T06:05:16.841Z,0.40
2018-01-25T06:06:16.838Z,0.50
2018-01-25T06:07:16.829Z,0.50
2018-01-25T06:08:16.836Z,0.50
2018-01-25T06:09:16.822Z,0.40
2018-01-25T06:10:16.822Z,0.40
2018-01-25T06:11:16.816Z,0.30
2018-01-25T06:12:16.825Z,0.40
2018-01-25T06:13:16.807Z,0.40
2018-01-25T06:14:16.817Z,0.40
2018-01-25T06:15:16.804Z,0.30
2018-01-25T06:16:16.796Z,0.30
2018-01-25T06:17:16.792Z,0.40
2018-01-25T06:18:16.789Z,0.30
2018-01-25T06:19:16.782Z,0.50
2018-01-25T06:20:16.769Z,0.40
2018-01-25T06:21:16.776Z,0.40
2018-01-25T06:22:16.772Z,0.40
2018-01-25T06:23:16.768Z,0.50
2018-01-25T06:24:16.763Z,0.40
2018-01-25T06:25:16.758Z,0.50
2018-01-25T06:26:16.751Z,0.50
2018-01-25T06:27:16.754Z,0.40
2018-01-25T06:28:16.747Z,0.40
2018-01-25T06:29:16.748Z,0.50
2018-01-25T06:30:16.742Z,0.40
2018-01-25T06:31:16.736Z,0.50
2018-01-25T06:32:16.723Z,0.50
2018-01-25T06:33:16.731Z,0.40
2018-01-25T06:34:16.719Z,0.50
2018-01-25T06:35:16.718Z,0.50
2018-01-25T06:36:16.721Z,0.40
2018-01-25T06:37:16.708Z,0.50
2018-01-25T06:38:16.728Z,0.40
2018-01-25T06:39:16.704Z,0.40
2018-01-25T06:40:16.752Z,0.50
2018-01-25T06:41:16.691Z,0.50
2018-01-25T06:42:16.687Z,0.40
2018-01-25T06:43:16.687Z,0.50
2018-01-25T06:44:16.688Z,0.70
2018-01-25T06:45:16.682Z,0.50
2018-01-25T06:46:16.677Z,0.40
2018-01-25T06:47:16.669Z,0.50
2018-01-25T06:48:16.664Z,0.50
2018-01-25T06:49:16.659Z,0.40
2018-01-25T06:50:16.653Z,0.50
2018-01-25T06:51:16.654Z,0.50
2018-01-25T06:52:16.659Z,0.40
2018-01-25T06:53:16.644Z,0.40
2018-01-25T06:54:16.632Z,0.40
2018-01-25T06:55:16.642Z,0.60
2018-01-25T06:56:16.634Z,0.60
2018-01-25T06:57:16.633Z,0.40
2018-01-25T06:58:16.639Z,0.50
2018-01-25T06:59:16.621Z,0.30
2018-01-25T07:00:16.613Z,0.40
2018-01-25T07:01:16.613Z,0.60
2018-01-25T07:02:16.607Z,0.50
2018-01-25T07:03:16.600Z,0.40
2018-01-25T07:04:16.598Z,0.50
2018-01-25T07:05:16.594Z,0.50
2018-01-25T07:06:16.592Z,0.50
2018-01-25T07:07:16.592Z,0.40
2018-01-25T07:08:16.583Z,0.40
2018-01-25T07:09:16.581Z,0.50
2018-01-25T07:10:16.578Z,0.50
2018-01-25T07:11:16.568Z,0.70
2018-01-25T07:12:16.566Z,0.40
2018-01-25T07:13:16.562Z,0.40
2018-01-25T07:14:16.568Z,0.30
2018-01-25T07:15:16.565Z,0.40
2018-01-25T07:16:16.563Z,0.50
2018-01-25T07:17:16.553Z,0.50
2018-01-25T07:18:16.539Z,0.30
2018-01-25T07:19:16.551Z,0.40
2018-01-25T07:20:16.534Z,0.40
2018-01-25T07:21:16.525Z,0.40
2018-01-25T07:22:16.532Z,0.50
2018-01-25T07:23:16.529Z,0.60
2018-01-25T07:24:16.523Z,0.40
2018-01-25T07:25:16.518Z,0.40
2018-01-25T07:26:16.504Z,0.30
2018-01-25T07:27:16.508Z,0.40
2018-01-25T07:28:16.506Z,0.40
2018-01-25T07:29:16.503Z,0.40
2018-01-25T07:30:16.521Z,0.30
2018-01-25T07:31:16.480Z,0.40
2018-01-25T07:32:16.500Z,0.50
2018-01-25T07:33:16.489Z,0.60
2018-01-25T07:34:16.484Z,0.50
2018-01-25T07:35:16.477Z,0.50
2018-01-25T07:36:16.480Z,0.50
2018-01-25T07:37:16.473Z,0.40
2018-01-25T07:38:16.461Z,0.50
2018-01-25T07:39:16.460Z,0.40
2018-01-25T07:40:16.465Z,0.60
2018-01-25T07:41:16.448Z,0.50
2018-01-25T07:42:16.440Z,0.50
2018-01-25T07:43:16.458Z,0.60
2018-01-25T07:44:16.434Z,0.50
2018-01-25T07:45:16.425Z,0.50
2018-01-25T07:46:16.428Z,0.60
2018-01-25T07:47:16.425Z,0.60
2018-01-25T07:48:16.427Z,0.50
2018-01-25T07:49:16.415Z,0.50
2018-01-25T07:50:16.414Z,0.40
2018-01-25T07:51:16.416Z,0.40
2018-01-25T07:52:16.396Z,0.40
2018-01-25T07:53:16.403Z,0.40
2018-01-25T07:54:16.394Z,0.40
2018-01-25T07:55:16.386Z,0.50
2018-01-25T07:56:16.385Z,0.40
2018-01-25T07:57:16.388Z,0.40
2018-01-25T07:58:16.379Z,0.50
2018-01-25T07:59:16.391Z,0.40
2018-01-25T08:00:16.374Z,0.60
2018-01-25T08:01:16.368Z,0.40
2018-01-25T08:02:16.370Z,0.50
2018-01-25T08:03:16.359Z,0.50
2018-01-25T08:04:16.352Z,0.60
2018-01-25T08:05:16.349Z,0.60
2018-01-25T08:06:16.345Z,0.60
2018-01-25T08:07:16.348Z,0.50
2018-01-25T08:08:16.329Z,0.30
2018-01-25T08:09:16.337Z,0.60
2018-01-25T08:10:16.327Z,0.70
2018-01-25T08:11:16.345Z,0.50
2018-01-25T08:12:16.319Z,0.60
2018-01-25T08:13:16.325Z,0.60
2018-01-25T08:14:16.325Z,0.50
2018-01-25T08:15:16.306Z,0.50
2018-01-25T08:16:16.313Z,0.50
2018-01-25T08:17:16.308Z,0.40
2018-01-25T08:18:16.301Z,0.50
2018-01-25T08:19:16.286Z,0.60
2018-01-25T08:20:16.282Z,0.40
2018-01-25T08:21:16.292Z,0.50
2018-01-25T08:22:16.281Z,0.50
2018-01-25T08:23:16.274Z,0.40
2018-01-25T08:24:16.279Z,0.40
2018-01-25T08:25:16.274Z,0.40
2018-01-25T08:26:16.284Z,0.60
2018-01-25T08:27:16.259Z,0.70
2018-01-25T08:28:16.252Z,0.60
2018-01-25T08:29:16.254Z,0.60
2018-01-25T08:30:16.247Z,0.50
2018-01-25T08:31:16.250Z,0.60
2018-01-25T08:32:16.236Z,0.40
2018-01-25T08:33:16.235Z,0.60
2018-01-25T08:34:16.253Z,0.40
2018-01-25T08:35:16.226Z,0.60
2018-01-25T08:36:16.222Z,0.60
2018-01-25T08:37:16.207Z,0.60
2018-01-25T08:38:16.225Z,0.60
2018-01-25T08:39:16.212Z,0.50
2018-01-25T08:40:16.215Z,0.50
2018-01-25T08:41:16.199Z,0.70
2018-01-25T08:42:16.198Z,0.60
2018-01-25T08:43:16.202Z,0.60
2018-01-25T08:44:16.188Z,0.50
2018-01-25T08:45:16.185Z,0.40
2018-01-25T08:46:16.182Z,0.50
2018-01-25T08:47:16.178Z,0.60
2018-01-25T08:48:16.179Z,0.60
2018-01-25T08:49:16.182Z,0.50
2018-01-25T08:50:16.166Z,0.50
2018-01-25T08:51:16.172Z,0.70
2018-01-25T08:52:16.165Z,0.60
2018-01-25T08:53:16.141Z,0.60
2018-01-25T08:54:16.153Z,0.50
2018-01-25T08:55:16.145Z,0.50
2018-01-25T08:56:16.140Z,0.50
2018-01-25T08:57:16.131Z,0.50
2018-01-25T08:58:16.138Z,0.60
2018-01-25T08:59:16.132Z,0.60
2018-01-25T09:00:16.148Z,0.70
2018-01-25T09:01:16.121Z,0.70
2018-01-25T09:02:16.120Z,0.70
2018-01-25T09:03:16.110Z,0.50
2018-01-25T09:04:16.120Z,0.50
2018-01-25T09:05:16.109Z,0.60
2018-01-25T09:06:16.111Z,0.70
2018-01-25T09:07:16.096Z,0.60
2018-01-25T09:08:16.090Z,0.60
2018-01-25T09:09:16.101Z,0.60
2018-01-25T09:10:16.102Z,0.60
2018-01-25T09:11:16.073Z,0.50
2018-01-25T09:12:16.128Z,0.60
2018-01-25T09:13:16.076Z,0.80
2018-01-25T09:14:16.073Z,0.70
2018-01-25T09:15:16.066Z,0.60
2018-01-25T09:16:16.062Z,0.50
2018-01-25T09:17:16.053Z,0.60
2018-01-25T09:18:16.051Z,0.70
2018-01-25T09:19:16.052Z,0.70
2018-01-25T09:20:16.061Z,0.70
2018-01-25T09:21:16.036Z,0.60
2018-01-25T09:22:16.027Z,0.70
2018-01-25T09:23:16.036Z,0.60
2018-01-25T09:24:16.030Z,0.50
2018-01-25T09:25:16.036Z,0.70
2018-01-25T09:26:16.022Z,0.60
2018-01-25T09:27:16.013Z,0.80
2018-01-25T09:28:16.021Z,0.80
2018-01-25T09:29:16.007Z,0.90
2018-01-25T09:30:16.012Z,0.60
2018-01-25T09:31:15.998Z,0.60
2018-01-25T09:32:15.997Z,0.70
2018-01-25T09:33:16.002Z,0.80
2018-01-25T09:34:15.990Z,0.80
2018-01-25T09:35:16.003Z,0.60
2018-01-25T09:36:15.977Z,0.60
2018-01-25T09:37:15.977Z,0.60
2018-01-25T09:38:15.979Z,0.70
2018-01-25T09:39:15.963Z,0.70
2018-01-25T09:40:15.964Z,0.60
2018-01-25T09:41:15.986Z,0.80
2018-01-25T09:42:15.951Z,0.70
2018-01-25T09:43:15.956Z,0.80
2018-01-25T09:44:15.962Z,0.80
2018-01-25T09:45:15.947Z,0.60
2018-01-25T09:46:15.942Z,0.80
2018-01-25T09:47:15.943Z,0.80
2018-01-25T09:48:15.937Z,0.70
2018-01-25T09:49:15.926Z,0.60
2018-01-25T09:50:15.940Z,0.60
2018-01-25T09:51:15.917Z,0.70
2018-01-25T09:52:15.918Z,0.60
2018-01-25T09:53:15.914Z,0.90
2018-01-25T09:54:15.922Z,0.70
2018-01-25T09:55:15.907Z,0.60
2018-01-25T09:56:15.894Z,0.60
2018-01-25T09:57:15.896Z,0.80
2018-01-25T09:58:15.888Z,0.80
2018-01-25T09:59:15.879Z,0.80
2018-01-25T10:00:15.882Z,0.90
2018-01-25T10:01:15.897Z,0.70
2018-01-25T10:02:15.881Z,0.80
2018-01-25T10:03:15.877Z,0.90
2018-01-25T10:04:15.871Z,0.90
2018-01-25T10:05:15.863Z,0.50
2018-01-25T10:06:15.862Z,0.80
2018-01-25T10:07:15.852Z,0.90
2018-01-25T10:08:15.842Z,0.70
2018-01-25T10:09:15.843Z,0.70
2018-01-25T10:10:15.891Z,0.70
2018-01-25T10:11:15.841Z,0.70
2018-01-25T10:12:15.833Z,0.70
2018-01-25T10:13:15.842Z,0.60
2018-01-25T10:14:15.827Z,0.80
2018-01-25T10:15:15.834Z,0.60
2018-01-25T10:16:15.823Z,0.70
2018-01-25T10:17:15.815Z,0.80
2018-01-25T10:18:15.806Z,0.70
2018-01-25T10:19:15.807Z,0.70
2018-01-25T10:20:15.803Z,0.80
2018-01-25T10:21:15.803Z,0.70
2018-01-25T10:22:15.792Z,0.60
2018-01-25T10:23:15.782Z,0.80
2018-01-25T10:24:15.807Z,0.90
2018-01-25T10:25:15.779Z,0.90
2018-01-25T10:26:15.799Z,0.70
2018-01-25T10:27:15.782Z,0.80
2018-01-25T10:28:15.785Z,1.00
2018-01-25T10:29:15.762Z,0.70
2018-01-25T10:30:15.764Z,0.80
2018-01-25T10:31:15.761Z,0.80
2018-01-25T10:32:15.751Z,0.70
2018-01-25T10:33:15.748Z,0.80
2018-01-25T10:34:15.752Z,0.80
2018-01-25T10:35:15.753Z,0.80
2018-01-25T10:36:15.738Z,0.70
2018-01-25T10:37:15.729Z,0.90
2018-01-25T10:38:15.767Z,0.70
2018-01-25T10:39:15.734Z,0.70
2018-01-25T10:40:15.719Z,0.80
2018-01-25T10:41:15.717Z,0.90
2018-01-25T10:42:15.717Z,0.80
2018-01-25T10:43:15.709Z,0.80
2018-01-25T10:44:15.703Z,0.90
2018-01-25T10:45:15.699Z,0.80
2018-01-25T10:46:15.699Z,0.90
2018-01-25T10:47:15.687Z,0.90
2018-01-25T10:48:15.707Z,0.90
2018-01-25T10:49:15.682Z,0.80
2018-01-25T10:50:15.674Z,0.70
2018-01-25T10:51:15.672Z,0.80
2018-01-25T10:52:15.695Z,0.90
2018-01-25T10:53:15.673Z,0.80
2018-01-25T10:54:15.667Z,0.90
2018-01-25T10:55:15.658Z,0.90
2018-01-25T10:56:15.659Z,0.70
2018-01-25T10:57:15.664Z,0.90
2018-01-25T10:58:15.650Z,0.60
2018-01-25T10:59:15.642Z,0.90
2018-01-25T11:00:15.644Z,0.60
2018-01-25T11:01:15.643Z,0.80
2018-01-25T11:02:15.629Z,0.70
2018-01-25T11:03:15.633Z,0.70
2018-01-25T11:04:15.628Z,0.70
2018-01-25T11:05:15.623Z,1.00
2018-01-25T11:06:15.631Z,0.70
2018-01-25T11:07:15.609Z,0.70
2018-01-25T11:08:15.622Z,0.90
2018-01-25T11:09:15.623Z,0.80
2018-01-25T11:10:15.603Z,0.80
2018-01-25T11:11:15.590Z,0.80
2018-01-25T11:12:15.603Z,0.80
2018-01-25T11:13:15.583Z,0.80
2018-01-25T11:14:15.578Z,0.80
2018-01-25T11:15:15.575Z,0.80
2018-01-25T11:16:15.578Z,0.80
2018-01-25T11:17:15.592Z,0.90
2018-01-25T11:18:15.567Z,0.80
2018-01-25T11:19:15.564Z,0.80
2018-01-25T11:20:15.555Z,0.90
2018-01-25T11:21:15.583Z,0.80
2018-01-25T11:22:15.548Z,0.90
2018-01-25T11:23:15.580Z,0.90
2018-01-25T11:24:15.549Z,0.80
2018-01-25T11:25:15.535Z,1.00
2018-01-25T11:26:15.550Z,0.80
2018-01-25T11:27:15.532Z,0.70
2018-01-25T11:28:15.518Z,0.90
2018-01-25T11:29:15.524Z,0.80
2018-01-25T11:30:15.543Z,0.80
2018-01-25T11:31:15.510Z,0.90
2018-01-25T11:32:15.509Z,0.80
2018-01-25T11:33:15.494Z,0.80
2018-01-25T11:34:15.509Z,0.90
2018-01-25T11:35:15.505Z,1.00
2018-01-25T11:36:15.510Z,0.90
2018-01-25T11:37:15.492Z,1.00
2018-01-25T11:38:15.489Z,1.00
2018-01-25T11:39:15.480Z,0.80
2018-01-25T11:40:15.479Z,1.00
2018-01-25T11:41:15.469Z,0.80
2018-01-25T11:42:15.464Z,1.10
2018-01-25T11:43:15.454Z,0.90
2018-01-25T11:44:15.453Z,0.90
2018-01-25T11:45:15.453Z,0.90
2018-01-25T11:46:15.458Z,0.80
2018-01-25T11:47:15.446Z,0.90
2018-01-25T11:48:15.433Z,0.90
2018-01-25T11:49:15.453Z,1.00
2018-01-25T11:50:15.440Z,0.90
2018-01-25T11:51:15.432Z,1.00
2018-01-25T11:52:15.434Z,0.90
2018-01-25T11:53:15.415Z,0.90
2018-01-25T11:54:15.423Z,0.80
2018-01-25T11:55:15.435Z,0.80
2018-01-25T11:56:15.403Z,1.00
2018-01-25T11:57:15.405Z,0.90
2018-01-25T11:58:15.404Z,0.90
2018-01-25T11:59:15.398Z,0.80
2018-01-25T12:00:15.403Z,0.80
2018-01-25T12:01:15.389Z,1.00
2018-01-25T12:02:15.389Z,0.70
2018-01-25T12:03:15.375Z,0.90
2018-01-25T12:04:15.365Z,0.90
2018-01-25T12:05:15.370Z,0.80
2018-01-25T12:06:15.385Z,0.80
2018-01-25T12:07:15.364Z,0.80
2018-01-25T12:08:15.366Z,1.00
2018-01-25T12:09:15.359Z,0.80
2018-01-25T12:10:15.353Z,1.00
2018-01-25T12:11:15.356Z,1.00
2018-01-25T12:12:15.345Z,0.90
2018-01-25T12:13:15.338Z,0.90
2018-01-25T12:14:15.335Z,0.70
2018-01-25T12:15:15.326Z,0.90
2018-01-25T12:16:15.329Z,0.90
2018-01-25T12:17:15.338Z,0.80
2018-01-25T12:18:15.333Z,0.70
2018-01-25T12:19:15.325Z,1.00
2018-01-25T12:20:15.354Z,0.90
2018-01-25T12:21:15.365Z,1.00
2018-01-25T12:22:15.311Z,0.80
2018-01-25T12:23:15.304Z,0.90
2018-01-25T12:24:15.304Z,0.80
2018-01-25T12:25:15.291Z,1.00
2018-01-25T12:26:15.334Z,0.80
2018-01-25T12:27:15.290Z,1.20
2018-01-25T12:28:15.286Z,0.90
2018-01-25T12:29:15.274Z,0.90
2018-01-25T12:30:15.284Z,0.90
2018-01-25T12:31:15.270Z,0.80
2018-01-25T12:32:15.269Z,1.00
2018-01-25T12:33:15.312Z,0.90
2018-01-25T12:34:15.268Z,0.90
2018-01-25T12:35:15.276Z,1.10
2018-01-25T12:36:15.250Z,0.90
2018-01-25T12:37:15.268Z,0.90
2018-01-25T12:38:15.248Z,0.90
2018-01-25T12:39:15.236Z,0.90
2018-01-25T12:40:15.231Z,0.90
2018-01-25T12:41:15.226Z,1.00
2018-01-25T12:42:15.236Z,0.90
2018-01-25T12:43:15.229Z,0.90
2018-01-25T12:44:15.217Z,0.80
2018-01-25T12:45:15.231Z,1.00
2018-01-25T12:46:15.209Z,1.00
2018-01-25T12:47:15.211Z,0.80
2018-01-25T12:48:15.199Z,1.10
2018-01-25T12:49:15.191Z,0.90
2018-01-25T12:50:15.184Z,1.10
2018-01-25T12:51:15.196Z,1.10
2018-01-25T12:52:15.176Z,1.00
2018-01-25T12:53:15.181Z,1.10
2018-01-25T12:54:15.182Z,0.90
2018-01-25T12:55:15.172Z,1.00
2018-01-25T12:56:15.171Z,0.80
2018-01-25T12:57:15.195Z,0.90
2018-01-25T12:58:15.160Z,0.90
2018-01-25T12:59:15.155Z,0.90
2018-01-25T13:00:15.150Z,1.10
2018-01-25T13:01:15.154Z,1.00
2018-01-25T13:02:15.159Z,1.10
2018-01-25T13:03:15.140Z,1.10
2018-01-25T13:04:15.182Z,1.00
2018-01-25T13:05:15.130Z,0.90
2018-01-25T13:06:15.125Z,1.10
2018-01-25T13:07:15.127Z,1.00
2018-01-25T13:08:15.113Z,1.10
2018-01-25T13:09:15.132Z,1.00
2018-01-25T13:10:15.109Z,0.90
2018-01-25T13:11:15.111Z,1.10
2018-01-25T13:12:15.106Z,1.10
2018-01-25T13:13:15.111Z,1.10
2018-01-25T13:14:15.087Z,1.30
2018-01-25T13:15:15.094Z,1.00
2018-01-25T13:16:15.087Z,0.90
2018-01-25T13:17:15.086Z,1.10
2018-01-25T13:18:15.086Z,0.80